createdAt,value
2017-10-03T00:01:56.750Z,2.60
2017-10-03T00:04:24.327Z,2.80
2017-10-03T00:06:52.639Z,2.80
2017-10-03T00:09:20.219Z,2.80
2017-10-03T00:11:47.759Z,3.00
2017-10-03T00:14:15.307Z,2.30
2017-10-03T00:16:42.878Z,4.27
2017-10-03T00:19:11.341Z,4.07
2017-10-03T00:21:38.914Z,3.17
2017-10-03T00:24:06.530Z,2.77
2017-10-03T00:26:34.096Z,2.60
2017-10-03T00:29:02.406Z,2.90
2017-10-03T00:31:29.969Z,2.83
2017-10-03T00:33:57.498Z,2.03
2017-10-03T00:36:26.469Z,3.47
2017-10-03T00:38:54.148Z,2.47
2017-10-03T00:41:22.528Z,2.90
2017-10-03T00:43:50.904Z,3.20
2017-10-03T00:46:19.224Z,2.57
2017-10-03T00:48:46.842Z,2.50
2017-10-03T00:51:15.324Z,2.77
2017-10-03T00:53:43.803Z,2.17
2017-10-03T00:56:12.180Z,2.73
2017-10-03T00:58:39.954Z,1.67
2017-10-03T01:01:08.427Z,1.97
2017-10-03T01:03:36.906Z,2.00
2017-10-03T01:06:05.286Z,1.47
2017-10-03T01:08:32.840Z,1.73
2017-10-03T01:11:00.503Z,2.73
2017-10-03T01:13:28.060Z,1.53
2017-10-03T01:15:55.726Z,1.40
2017-10-03T01:18:23.693Z,2.10
2017-10-03T01:20:51.253Z,2.00
2017-10-03T01:23:18.911Z,2.07
2017-10-03T01:25:46.519Z,1.70
2017-10-03T01:28:14.070Z,2.20
2017-10-03T01:30:41.689Z,1.70
2017-10-03T01:33:09.252Z,1.97
2017-10-03T01:35:36.806Z,1.43
2017-10-03T01:38:06.308Z,2.17
2017-10-03T01:40:33.971Z,1.73
2017-10-03T01:43:01.638Z,2.00
2017-10-03T01:45:30.117Z,1.70
2017-10-03T01:47:57.776Z,2.00
2017-10-03T01:50:25.433Z,1.70
2017-10-03T01:52:53.100Z,1.90
2017-10-03T01:55:20.802Z,1.43
2017-10-03T01:57:48.419Z,2.00
2017-10-03T02:00:15.948Z,2.43
2017-10-03T02:02:43.542Z,1.93
2017-10-03T02:05:11.123Z,1.90
2017-10-03T02:07:39.462Z,1.67
2017-10-03T02:10:07.022Z,1.43
2017-10-03T02:12:34.599Z,1.60
2017-10-03T02:15:02.115Z,1.40
2017-10-03T02:17:29.655Z,1.30
2017-10-03T02:19:57.206Z,1.90
2017-10-03T02:22:24.770Z,1.47
2017-10-03T02:24:52.356Z,1.50
2017-10-03T02:27:19.887Z,1.83
2017-10-03T02:29:47.445Z,1.13
2017-10-03T02:32:14.990Z,1.20
2017-10-03T02:34:42.531Z,1.73
2017-10-03T02:37:10.088Z,1.10
2017-10-03T02:39:37.643Z,1.40
2017-10-03T02:42:05.181Z,1.30
2017-10-03T02:44:32.703Z,1.53
2017-10-03T02:47:00.279Z,1.40
2017-10-03T02:49:27.839Z,1.30
2017-10-03T02:51:55.370Z,1.10
2017-10-03T02:54:23.669Z,1.37
2017-10-03T02:56:51.220Z,1.30
2017-10-03T02:59:18.790Z,1.40
2017-10-03T03:01:46.337Z,1.27
2017-10-03T03:04:13.883Z,1.57
2017-10-03T03:06:41.445Z,1.40
2017-10-03T03:09:08.961Z,1.97
2017-10-03T03:11:36.550Z,1.20
2017-10-03T03:14:04.870Z,1.40
2017-10-03T03:16:32.421Z,1.13
2017-10-03T03:18:59.946Z,1.50
2017-10-03T03:21:28.268Z,1.53
2017-10-03T03:23:55.819Z,1.23
2017-10-03T03:26:24.130Z,1.10
2017-10-03T03:28:51.659Z,1.10
2017-10-03T03:31:19.205Z,1.30
2017-10-03T03:33:46.771Z,1.40
2017-10-03T03:36:14.315Z,1.10
2017-10-03T03:38:41.854Z,1.20
2017-10-03T03:41:10.170Z,1.20
2017-10-03T03:43:37.728Z,1.43
2017-10-03T03:46:05.253Z,2.00
2017-10-03T03:48:32.774Z,1.40
2017-10-03T03:51:00.299Z,1.30
2017-10-03T03:53:27.851Z,1.80
2017-10-03T03:55:55.424Z,1.00
2017-10-03T03:58:22.963Z,1.23
2017-10-03T04:00:50.545Z,1.70
2017-10-03T04:03:18.067Z,0.97
2017-10-03T04:05:45.622Z,1.33
2017-10-03T04:08:13.913Z,1.00
2017-10-03T04:10:42.209Z,1.03
2017-10-03T04:13:09.740Z,1.10
2017-10-03T04:15:37.256Z,1.40
2017-10-03T04:18:04.800Z,1.40
2017-10-03T04:20:32.306Z,1.10
2017-10-03T04:23:00.622Z,1.20
2017-10-03T04:25:28.148Z,1.00
2017-10-03T04:27:56.486Z,1.10
2017-10-03T04:30:24.018Z,1.20
2017-10-03T04:32:51.540Z,1.20
2017-10-03T04:35:19.865Z,0.93
2017-10-03T04:37:47.397Z,1.20
2017-10-03T04:40:14.945Z,0.90
2017-10-03T04:42:43.229Z,1.13
2017-10-03T04:45:10.773Z,1.10
2017-10-03T04:47:38.327Z,1.40
2017-10-03T04:50:06.653Z,1.20
2017-10-03T04:52:34.203Z,1.20
2017-10-03T04:55:01.710Z,1.10
2017-10-03T04:57:29.255Z,1.20
2017-10-03T04:59:56.789Z,1.30
2017-10-03T05:02:24.333Z,1.17
2017-10-03T05:04:51.888Z,1.20
2017-10-03T05:07:19.439Z,1.23
2017-10-03T05:09:46.986Z,1.33
2017-10-03T05:12:14.502Z,1.17
2017-10-03T05:14:42.025Z,1.17
2017-10-03T05:17:09.588Z,1.53
2017-10-03T05:19:37.132Z,1.20
2017-10-03T05:22:04.639Z,1.73
2017-10-03T05:24:32.164Z,1.60
2017-10-03T05:26:59.696Z,1.50
2017-10-03T05:29:28.007Z,1.47
2017-10-03T05:31:55.540Z,1.50
2017-10-03T05:34:23.076Z,1.50
2017-10-03T05:36:50.590Z,1.60
2017-10-03T05:39:18.110Z,2.03
2017-10-03T05:41:45.662Z,1.70
2017-10-03T05:44:13.189Z,1.90
2017-10-03T05:46:40.750Z,1.53
2017-10-03T05:49:08.279Z,2.17
2017-10-03T05:51:36.261Z,2.07
2017-10-03T05:54:03.784Z,2.07
2017-10-03T05:56:31.350Z,2.00
2017-10-03T05:58:58.895Z,1.90
2017-10-03T06:01:27.180Z,2.07
2017-10-03T06:03:54.752Z,2.50
2017-10-03T06:06:22.297Z,2.43
2017-10-03T06:08:49.842Z,1.90
2017-10-03T06:11:17.377Z,2.10
2017-10-03T06:13:44.908Z,2.40
2017-10-03T06:16:12.450Z,2.23
2017-10-03T06:18:40.301Z,2.53
2017-10-03T06:21:07.844Z,2.40
2017-10-03T06:23:36.462Z,2.00
2017-10-03T06:26:03.975Z,2.27
2017-10-03T06:28:32.296Z,1.90
2017-10-03T06:30:59.835Z,2.20
2017-10-03T06:33:27.432Z,2.70
2017-10-03T06:35:55.014Z,2.50
2017-10-03T06:38:22.686Z,2.40
2017-10-03T06:40:51.018Z,2.30
2017-10-03T06:43:18.534Z,2.27
2017-10-03T06:45:46.868Z,1.90
2017-10-03T06:48:14.380Z,2.27
2017-10-03T06:50:42.662Z,2.20
2017-10-03T06:53:10.974Z,2.20
2017-10-03T06:55:38.666Z,2.33
2017-10-03T06:58:07.013Z,2.77
2017-10-03T07:00:34.559Z,2.27
2017-10-03T07:03:02.115Z,2.20
2017-10-03T07:05:29.651Z,2.33
2017-10-03T07:07:57.954Z,2.60
2017-10-03T07:10:25.466Z,2.40
2017-10-03T07:12:53.797Z,2.17
2017-10-03T07:15:23.100Z,2.40
2017-10-03T07:17:52.606Z,2.57
2017-10-03T07:20:20.633Z,2.40
2017-10-03T07:22:48.978Z,2.30
2017-10-03T07:25:17.128Z,2.50
2017-10-03T07:27:44.697Z,2.80
2017-10-03T07:30:14.315Z,2.20
2017-10-03T07:32:41.879Z,3.40
2017-10-03T07:35:09.536Z,2.47
2017-10-03T07:37:37.327Z,2.80
2017-10-03T07:40:05.292Z,2.73
2017-10-03T07:42:33.875Z,3.43
2017-10-03T07:45:01.436Z,2.20
2017-10-03T07:47:29.767Z,3.07
2017-10-03T07:49:57.308Z,3.10
2017-10-03T07:52:24.910Z,3.90
2017-10-03T07:54:52.487Z,2.60
2017-10-03T07:57:20.095Z,3.17
2017-10-03T07:59:48.034Z,3.07
2017-10-03T08:02:16.372Z,3.40
2017-10-03T08:04:43.936Z,3.07
2017-10-03T08:07:11.627Z,3.27
2017-10-03T08:09:39.441Z,2.90
2017-10-03T08:12:07.273Z,3.63
2017-10-03T08:14:34.863Z,3.47
2017-10-03T08:17:02.406Z,3.27
2017-10-03T08:19:29.984Z,3.80
2017-10-03T08:21:57.586Z,3.63
2017-10-03T08:24:25.128Z,3.63
2017-10-03T08:26:52.685Z,3.93
2017-10-03T08:29:20.277Z,3.40
2017-10-03T08:31:48.612Z,4.20
2017-10-03T08:34:16.202Z,4.27
2017-10-03T08:36:43.769Z,5.00
2017-10-03T08:39:11.361Z,4.07
2017-10-03T08:41:45.120Z,2.97
2017-10-03T08:44:13.463Z,4.20
2017-10-03T08:46:41.000Z,3.73
2017-10-03T08:49:08.614Z,3.80
2017-10-03T08:51:36.159Z,26.67
2017-10-03T08:54:03.754Z,4.90
2017-10-03T08:56:31.296Z,3.87
2017-10-03T08:58:58.860Z,5.90
2017-10-03T09:01:26.386Z,4.67
2017-10-03T09:03:54.221Z,5.70
2017-10-03T09:06:21.752Z,4.47
2017-10-03T09:08:49.272Z,3.60
2017-10-03T09:11:17.754Z,3.80
2017-10-03T09:13:45.322Z,3.40
2017-10-03T09:16:12.894Z,4.10
2017-10-03T09:18:40.451Z,4.80
2017-10-03T09:21:08.034Z,3.70
2017-10-03T09:23:35.589Z,5.30
2017-10-03T09:26:03.914Z,5.10
2017-10-03T09:28:31.452Z,4.03
2017-10-03T09:30:59.001Z,4.40
2017-10-03T09:33:27.325Z,3.70
2017-10-03T09:35:54.864Z,3.90
2017-10-03T09:38:22.417Z,4.17
2017-10-03T09:40:49.962Z,3.80
2017-10-03T09:43:17.519Z,7.13
2017-10-03T09:45:45.826Z,9.80
2017-10-03T09:48:13.354Z,3.70
2017-10-03T09:50:41.670Z,4.60
2017-10-03T09:53:09.202Z,3.90
2017-10-03T09:55:36.750Z,5.20
2017-10-03T09:58:04.348Z,5.93
2017-10-03T10:00:31.935Z,13.90
2017-10-03T10:02:59.486Z,4.17
2017-10-03T10:05:27.030Z,4.57
2017-10-03T10:07:55.045Z,3.43
2017-10-03T10:10:22.618Z,3.17
2017-10-03T10:12:50.947Z,4.47
2017-10-03T10:15:18.469Z,2.70
2017-10-03T10:17:46.036Z,20.23
2017-10-03T10:20:13.593Z,7.77
2017-10-03T10:22:41.192Z,7.20
2017-10-03T10:25:08.772Z,6.90
2017-10-03T10:27:36.314Z,4.67
2017-10-03T10:30:04.216Z,10.33
2017-10-03T10:32:31.774Z,8.80
2017-10-03T10:35:00.061Z,7.70
2017-10-03T10:37:27.634Z,4.40
2017-10-03T10:39:55.165Z,2.83
2017-10-03T10:42:23.789Z,3.23
2017-10-03T10:44:51.325Z,3.37
2017-10-03T10:47:18.894Z,2.40
2017-10-03T10:49:46.444Z,3.83
2017-10-03T10:52:13.974Z,3.17
2017-10-03T10:54:41.488Z,3.60
2017-10-03T10:57:09.025Z,2.60
2017-10-03T10:59:36.547Z,4.10
2017-10-03T11:02:04.185Z,2.90
2017-10-03T11:04:31.865Z,2.77
2017-10-03T11:06:59.496Z,2.87
2017-10-03T11:09:27.142Z,3.33
2017-10-03T11:11:55.624Z,3.17
2017-10-03T11:14:23.278Z,2.23
2017-10-03T11:16:50.932Z,3.17
2017-10-03T11:19:23.656Z,2.23
2017-10-03T11:21:51.243Z,3.10
2017-10-03T11:24:30.663Z,3.10
2017-10-03T11:26:58.320Z,3.00
2017-10-03T11:29:25.929Z,3.10
2017-10-03T11:31:54.302Z,2.60
2017-10-03T11:34:23.701Z,2.50
2017-10-03T11:36:51.264Z,3.57
2017-10-03T11:39:18.952Z,2.47
2017-10-03T11:41:48.334Z,2.60
2017-10-03T11:44:15.892Z,3.30
2017-10-03T11:46:44.450Z,2.50
2017-10-03T11:49:12.073Z,2.33
2017-10-03T11:51:39.963Z,2.87
2017-10-03T11:54:07.563Z,2.90
2017-10-03T11:56:35.210Z,2.60
2017-10-03T11:59:03.576Z,2.47
2017-10-03T12:01:31.963Z,2.53
2017-10-03T12:04:00.300Z,2.43
2017-10-03T12:06:27.874Z,2.13
2017-10-03T12:08:55.454Z,2.53
2017-10-03T12:11:23.118Z,2.40
2017-10-03T12:13:50.991Z,2.70
2017-10-03T12:16:18.728Z,3.17
2017-10-03T12:18:46.440Z,2.50
2017-10-03T12:21:14.021Z,2.20
2017-10-03T12:23:41.622Z,2.40
2017-10-03T12:26:09.249Z,1.67
2017-10-03T12:28:36.846Z,2.93
2017-10-03T12:31:04.488Z,2.20
2017-10-03T12:33:32.008Z,2.27
2017-10-03T12:35:59.628Z,2.47
2017-10-03T12:38:27.159Z,2.53
2017-10-03T12:40:55.137Z,2.00
2017-10-03T12:43:22.740Z,1.80
2017-10-03T12:45:51.040Z,1.77
2017-10-03T12:48:18.573Z,2.47
2017-10-03T12:50:46.905Z,1.80
2017-10-03T12:53:15.461Z,1.73
2017-10-03T12:55:56.183Z,1.50
2017-10-03T12:58:24.085Z,1.90
2017-10-03T13:00:52.013Z,1.80
2017-10-03T13:03:19.716Z,3.37
2017-10-03T13:05:47.314Z,2.47
2017-10-03T13:08:15.084Z,1.83
2017-10-03T13:10:42.761Z,2.23
2017-10-03T13:13:10.327Z,2.70
2017-10-03T13:15:38.655Z,2.43
2017-10-03T13:18:06.228Z,2.33
2017-10-03T13:20:33.767Z,1.90
2017-10-03T13:23:01.321Z,1.67
2017-10-03T13:25:28.872Z,1.67
2017-10-03T13:27:56.734Z,1.50
2017-10-03T13:30:24.357Z,2.10
2017-10-03T13:32:51.896Z,1.30
2017-10-03T13:35:19.668Z,1.63
2017-10-03T13:37:47.341Z,1.20
2017-10-03T13:40:14.886Z,2.10
2017-10-03T13:42:43.257Z,1.80
2017-10-03T13:45:10.821Z,1.90
2017-10-03T13:47:38.479Z,1.60
2017-10-03T13:50:06.045Z,1.60
2017-10-03T13:52:33.603Z,1.53
2017-10-03T13:55:01.183Z,2.13
2017-10-03T13:57:29.786Z,1.60
2017-10-03T13:59:57.333Z,1.93
2017-10-03T14:02:25.660Z,1.70
2017-10-03T14:04:53.227Z,2.27
2017-10-03T14:07:20.831Z,1.60
2017-10-03T14:09:48.472Z,1.80
2017-10-03T14:12:16.021Z,2.33
2017-10-03T14:14:43.619Z,2.47
2017-10-03T14:17:11.989Z,1.93
2017-10-03T14:19:40.330Z,1.50
2017-10-03T14:22:07.871Z,1.60
2017-10-03T14:24:35.810Z,1.67
2017-10-03T14:27:04.130Z,1.30
2017-10-03T14:29:31.670Z,1.40
2017-10-03T14:31:59.831Z,2.80
2017-10-03T14:34:27.431Z,1.53
2017-10-03T14:36:55.043Z,1.90
2017-10-03T14:39:22.754Z,1.93
2017-10-03T14:41:50.347Z,1.87
2017-10-03T14:44:17.860Z,1.93
2017-10-03T14:46:45.727Z,1.77
2017-10-03T14:49:13.298Z,2.00
2017-10-03T14:51:40.874Z,2.03
2017-10-03T14:54:08.451Z,2.20
2017-10-03T14:56:35.979Z,2.50
2017-10-03T14:59:03.616Z,2.00
2017-10-03T15:01:31.164Z,2.03
2017-10-03T15:03:58.734Z,3.23
2017-10-03T15:06:26.320Z,2.60
2017-10-03T15:08:54.313Z,1.30
2017-10-03T15:11:22.715Z,1.50
2017-10-03T15:13:50.464Z,1.70
2017-10-03T15:16:19.012Z,1.93
2017-10-03T15:18:47.534Z,2.13
2017-10-03T15:21:15.168Z,2.20
2017-10-03T15:23:42.841Z,1.90
2017-10-03T15:26:10.599Z,1.80
2017-10-03T15:28:38.468Z,2.20
2017-10-03T15:31:06.264Z,2.30
2017-10-03T15:33:34.143Z,1.87
2017-10-03T15:36:02.756Z,2.43
2017-10-03T15:38:30.422Z,2.07
2017-10-03T15:40:58.936Z,1.40
2017-10-03T15:43:26.587Z,1.43
2017-10-03T15:45:56.329Z,2.23
2017-10-03T15:48:23.953Z,1.50
2017-10-03T15:50:51.597Z,2.10
2017-10-03T15:53:19.180Z,1.60
2017-10-03T15:55:46.882Z,1.70
2017-10-03T15:58:18.000Z,1.80
2017-10-03T16:00:46.487Z,2.40
2017-10-03T16:03:14.201Z,1.90
2017-10-03T16:05:41.912Z,2.00
2017-10-03T16:08:10.071Z,1.67
2017-10-03T16:10:38.725Z,1.97
2017-10-03T16:13:07.106Z,1.53
2017-10-03T16:15:35.145Z,1.90
2017-10-03T16:18:03.061Z,2.23
2017-10-03T16:20:30.763Z,1.80
2017-10-03T16:22:58.447Z,2.13
2017-10-03T16:25:26.245Z,1.90
2017-10-03T16:27:55.393Z,2.13
2017-10-03T16:30:23.412Z,2.27
2017-10-03T16:32:51.602Z,2.37
2017-10-03T16:35:19.290Z,2.00
2017-10-03T16:37:48.039Z,1.90
2017-10-03T16:40:15.736Z,2.33
2017-10-03T16:42:43.400Z,3.10
2017-10-03T16:45:12.931Z,2.00
2017-10-03T16:47:40.629Z,2.13
2017-10-03T16:50:08.388Z,1.90
2017-10-03T16:52:36.173Z,2.60
2017-10-03T16:55:08.661Z,3.30
2017-10-03T16:57:36.322Z,2.30
2017-10-03T17:00:03.952Z,3.50
2017-10-03T17:02:31.529Z,2.70
2017-10-03T17:04:59.169Z,2.23
2017-10-03T17:07:26.807Z,3.07
2017-10-03T17:09:54.457Z,5.07
2017-10-03T17:12:22.792Z,6.67
2017-10-03T17:14:50.377Z,7.20
2017-10-03T17:17:18.690Z,7.70
2017-10-03T17:19:46.757Z,4.23
2017-10-03T17:22:14.371Z,3.03
2017-10-03T17:24:41.979Z,3.07
2017-10-03T17:27:09.771Z,2.90
2017-10-03T17:29:37.354Z,3.30
2017-10-03T17:32:04.913Z,3.20
2017-10-03T17:34:32.551Z,4.37
2017-10-03T17:37:00.138Z,4.90
2017-10-03T17:39:27.842Z,3.47
2017-10-03T17:41:55.537Z,4.20
2017-10-03T17:44:25.763Z,4.70
2017-10-03T17:46:53.343Z,3.70
2017-10-03T17:49:21.086Z,4.20
2017-10-03T17:51:48.839Z,5.17
2017-10-03T17:54:16.400Z,5.87
2017-10-03T17:56:44.027Z,11.17
2017-10-03T17:59:11.645Z,13.10
2017-10-03T18:01:39.193Z,13.30
2017-10-03T18:04:06.773Z,12.00
2017-10-03T18:06:34.372Z,7.37
2017-10-03T18:09:01.931Z,5.80
2017-10-03T18:11:29.496Z,4.87
2017-10-03T18:13:58.064Z,4.30
2017-10-03T18:16:26.524Z,4.23
2017-10-03T18:18:54.920Z,7.83
2017-10-03T18:21:23.271Z,7.10
2017-10-03T18:23:50.860Z,5.03
2017-10-03T18:26:19.202Z,4.70
2017-10-03T18:28:46.794Z,5.87
2017-10-03T18:31:15.135Z,5.40
2017-10-03T18:33:42.783Z,5.20
2017-10-03T18:36:10.369Z,4.90
2017-10-03T18:38:38.663Z,4.13
2017-10-03T18:41:06.987Z,4.40
2017-10-03T18:43:34.564Z,8.53
2017-10-03T18:46:02.163Z,12.23
2017-10-03T18:48:29.717Z,7.80
2017-10-03T18:50:57.319Z,5.20
2017-10-03T18:53:24.858Z,4.40
2017-10-03T18:55:53.253Z,4.60
2017-10-03T18:58:20.830Z,4.10
2017-10-03T19:00:48.521Z,4.90
2017-10-03T19:03:16.104Z,5.30
2017-10-03T19:05:44.436Z,4.07
2017-10-03T19:08:12.851Z,3.53
2017-10-03T19:10:41.193Z,4.37
2017-10-03T19:13:09.636Z,3.10
2017-10-03T19:15:37.298Z,3.97
2017-10-03T19:18:05.671Z,4.43
2017-10-03T19:20:33.988Z,4.97
2017-10-03T19:23:01.511Z,4.13
2017-10-03T19:25:29.074Z,5.20
2017-10-03T19:27:56.776Z,3.80
2017-10-03T19:30:24.352Z,6.80
2017-10-03T19:32:52.079Z,4.67
2017-10-03T19:35:30.635Z,4.00
2017-10-03T19:38:03.735Z,4.20
2017-10-03T19:40:32.370Z,7.43
2017-10-03T19:43:01.391Z,4.10
2017-10-03T19:45:29.280Z,4.57
2017-10-03T19:47:57.420Z,4.27
2017-10-03T19:50:26.251Z,4.33
2017-10-03T19:52:54.152Z,4.63
2017-10-03T19:55:22.845Z,4.20
2017-10-03T19:57:50.561Z,4.30
2017-10-03T20:00:18.394Z,5.10
2017-10-03T20:02:46.092Z,7.00
2017-10-03T20:05:13.753Z,5.00
2017-10-03T20:07:44.619Z,5.87
2017-10-03T20:10:12.998Z,4.80
2017-10-03T20:12:40.805Z,5.17
2017-10-03T20:15:08.465Z,5.53
2017-10-03T20:17:37.942Z,4.13
2017-10-03T20:20:06.344Z,5.27
2017-10-03T20:22:41.560Z,4.30
2017-10-03T20:25:09.271Z,5.47
2017-10-03T20:27:37.910Z,5.90
2017-10-03T20:30:06.772Z,5.27
2017-10-03T20:32:36.307Z,5.17
2017-10-03T20:35:04.079Z,4.50
2017-10-03T20:37:32.782Z,5.77
2017-10-03T20:40:00.524Z,4.60
2017-10-03T20:42:30.370Z,4.70
2017-10-03T20:44:58.363Z,5.30
2017-10-03T20:47:27.223Z,4.23
2017-10-03T20:49:56.717Z,4.70
2017-10-03T20:52:25.163Z,6.13
2017-10-03T20:54:54.525Z,13.53
2017-10-03T20:57:23.218Z,5.43
2017-10-03T20:59:50.872Z,4.20
2017-10-03T21:02:18.701Z,5.30
2017-10-03T21:04:46.540Z,4.87
2017-10-03T21:07:16.824Z,4.90
2017-10-03T21:09:44.642Z,5.90
2017-10-03T21:12:13.991Z,5.90
2017-10-03T21:14:42.070Z,7.47
2017-10-03T21:17:10.804Z,6.77
2017-10-03T21:19:40.749Z,7.07
2017-10-03T21:22:11.262Z,7.47
2017-10-03T21:24:40.193Z,6.47
2017-10-03T21:27:08.864Z,7.13
2017-10-03T21:29:36.671Z,7.10
2017-10-03T21:32:07.473Z,6.07
2017-10-03T21:34:35.252Z,6.83
2017-10-03T21:37:03.756Z,5.87
2017-10-03T21:39:31.329Z,6.53
2017-10-03T21:42:10.749Z,6.10
2017-10-03T21:44:39.069Z,7.63
2017-10-03T21:47:06.668Z,6.87
2017-10-03T21:49:35.463Z,6.97
2017-10-03T21:52:03.827Z,6.73
2017-10-03T21:54:32.150Z,5.90
2017-10-03T21:56:59.741Z,6.60
2017-10-03T21:59:27.315Z,5.30
2017-10-03T22:01:54.875Z,7.00
2017-10-03T22:04:22.417Z,8.23
2017-10-03T22:06:49.981Z,7.50
2017-10-03T22:09:17.547Z,7.00
2017-10-03T22:11:45.095Z,7.00
2017-10-03T22:14:12.666Z,6.73
2017-10-03T22:16:40.264Z,6.33
2017-10-03T22:19:07.806Z,7.20
2017-10-03T22:21:35.366Z,8.00
2017-10-03T22:24:03.311Z,7.07
2017-10-03T22:26:30.852Z,6.50
2017-10-03T22:28:58.410Z,7.60
2017-10-03T22:31:25.983Z,7.47
2017-10-03T22:33:53.534Z,7.00
2017-10-03T22:36:21.098Z,6.40
2017-10-03T22:38:48.677Z,6.90
2017-10-03T22:41:16.270Z,6.50
2017-10-03T22:43:44.563Z,5.67
2017-10-03T22:46:12.124Z,4.90
2017-10-03T22:48:39.636Z,5.63
2017-10-03T22:51:27.914Z,4.97
2017-10-03T22:53:55.484Z,5.10
2017-10-03T22:56:23.067Z,4.90
2017-10-03T22:58:50.621Z,5.13
2017-10-03T23:01:18.192Z,5.30
2017-10-03T23:03:45.758Z,5.70
2017-10-03T23:06:13.361Z,5.13
2017-10-03T23:08:41.712Z,5.53
2017-10-03T23:11:09.265Z,6.57
2017-10-03T23:13:36.810Z,5.30
2017-10-03T23:16:04.390Z,5.17
2017-10-03T23:18:31.951Z,4.80
2017-10-03T23:20:59.502Z,5.00
2017-10-03T23:23:27.046Z,4.73
2017-10-03T23:25:54.616Z,4.57
2017-10-03T23:28:22.202Z,5.20
2017-10-03T23:30:49.733Z,4.80
2017-10-03T23:33:17.278Z,4.90
2017-10-03T23:35:44.852Z,6.00
2017-10-03T23:38:12.408Z,5.87
2017-10-03T23:40:39.973Z,5.30
2017-10-03T23:43:07.533Z,5.20
2017-10-03T23:45:35.088Z,5.67
2017-10-03T23:48:02.617Z,5.80
2017-10-03T23:50:30.170Z,6.27
2017-10-03T23:52:57.712Z,5.67
2017-10-03T23:55:26.037Z,6.33
2017-10-03T23:57:53.581Z,5.60
